This is the latest recevied weather packets stored in our database for station/object OE-11144. If no packets are shown the sender has not sent any weather packets the latest 10 day(s).
| Time | Temp. | Humidity | Pressure | Rain* | Wind** | Luminosity | Snow |
|---|---|---|---|---|---|---|---|
| 1787856928 | 19.44° C | 84% | 1013.7 hPa | 0 mm | - | - | - |
| 1787856101 | 20.56° C | 84% | 1013.3 hPa | 0 mm | - | - | - |
| 1787855727 | 21.11° C | 84% | 1013 hPa | 0 mm | - | - | - |
| 1787855128 | 20.56° C | 84% | 1013.1 hPa | 0 mm | - | - | - |
| 1787854301 | 21.67° C | 79% | 1012.6 hPa | 0 mm | - | - | - |
| 1787853928 | 22.78° C | 79% | 1012.1 hPa | 0 mm | - | - | - |
| 1787852740 | 23.33° C | 80% | 1011.7 hPa | 0 mm | - | - | - |
| 1787852127 | 23.89° C | 76% | 1011.5 hPa | 0 mm | - | - | - |
| 1787851528 | 24.44° C | 72% | 1011.2 hPa | 0 mm | - | - | - |
| 1787850701 | 24.44° C | 74% | 1011.2 hPa | 0 mm | - | - | - |
| 1787850328 | 25.56° C | 68% | 1010.9 hPa | 0 mm | - | - | - |
| 1787849728 | 25.56° C | 66% | 1010.9 hPa | 0 mm | - | - | - |
| 1787848901 | 25.56° C | 69% | 1010.9 hPa | 0 mm | - | - | - |
| 1787848528 | 26.11° C | 66% | 1010.8 hPa | 0 mm | - | - | - |
| 1787847928 | 26.11° C | 67% | 1010.6 hPa | 0 mm | - | - | - |
| 1787847101 | 26.67° C | 65% | 1010.5 hPa | 0 mm | - | - | - |
| 1787846728 | 27.78° C | 63% | 1010.3 hPa | 0 mm | - | - | - |
| 1787846128 | 27.78° C | 61% | 1010.2 hPa | 0 mm | - | - | - |
| 1787845300 | 27.78° C | 69% | 1010.3 hPa | 0 mm | - | - | - |
| 1787844928 | 27.78° C | 62% | 1010.2 hPa | 0 mm | - | - | - |
| 1787844328 | 27.78° C | 62% | 1010.2 hPa | 0 mm | - | - | - |
| 1787843501 | 28.33° C | 57% | 1010.1 hPa | 0 mm | - | - | - |
| 1787843128 | 28.89° C | 52% | 1010.1 hPa | 0 mm | - | - | - |
| 1787842528 | 28.89° C | 45% | 1009.9 hPa | 0 mm | - | - | - |
| 1787841700 | 28.33° C | 56% | 1010.1 hPa | 0 mm | - | - | - |
* Rain latest hour (hover to see other rain measurements)
** Current wind speed in m/s (hover to see current wind gust speed)